createdAt,value
2023-04-11T00:01:29.890Z,-1.00
2023-04-11T00:03:59.287Z,-1.00
2023-04-11T00:06:27.803Z,-1.00
2023-04-11T00:08:58.138Z,-1.00
2023-04-11T00:11:26.777Z,-1.00
2023-04-11T00:13:58.936Z,-1.00
2023-04-11T00:16:27.309Z,-1.00
2023-04-11T00:18:57.429Z,-1.00
2023-04-11T00:21:25.846Z,-1.00
2023-04-11T00:23:55.520Z,-1.00
2023-04-11T00:26:23.798Z,-1.00
2023-04-11T00:28:53.458Z,-1.00
2023-04-11T00:31:22.018Z,-1.00
2023-04-11T00:33:50.650Z,-1.00
2023-04-11T00:36:19.103Z,-1.00
2023-04-11T00:38:48.148Z,-1.00
2023-04-11T00:41:19.226Z,-1.00
2023-04-11T00:43:49.846Z,-1.00
2023-04-11T00:46:18.812Z,-1.00
2023-04-11T00:48:48.238Z,-1.00
2023-04-11T00:51:25.887Z,-1.00
2023-04-11T00:53:56.825Z,-1.00
2023-04-11T00:56:25.092Z,-1.00
2023-04-11T00:58:53.918Z,-1.00
2023-04-11T01:01:25.788Z,-1.00
2023-04-11T01:03:54.445Z,-1.00
2023-04-11T01:06:23.642Z,-1.00
2023-04-11T01:08:56.153Z,-1.00
2023-04-11T01:11:25.047Z,-1.00
2023-04-11T01:13:53.473Z,-1.00
2023-04-11T01:16:22.065Z,-1.00
2023-04-11T01:18:50.756Z,-1.00
2023-04-11T01:21:20.351Z,-1.00
2023-04-11T01:23:48.963Z,-1.00
2023-04-11T01:26:17.532Z,-1.00
2023-04-11T01:28:46.608Z,-1.00
2023-04-11T01:31:15.686Z,-1.00
2023-04-11T01:33:45.571Z,-1.00
2023-04-11T01:36:14.368Z,-1.00
2023-04-11T01:38:46.876Z,-1.00
2023-04-11T01:41:16.475Z,-1.00
2023-04-11T01:43:47.771Z,-1.00
2023-04-11T01:46:16.660Z,-1.00
2023-04-11T01:48:45.927Z,-1.00
2023-04-11T01:51:15.619Z,-1.00
2023-04-11T01:53:47.558Z,-1.00
2023-04-11T01:56:15.949Z,-1.00
2023-04-11T01:58:45.044Z,-1.00
2023-04-11T02:01:19.402Z,-1.00
2023-04-11T02:03:48.216Z,-1.00
2023-04-11T02:06:17.344Z,-1.00
2023-04-11T02:08:54.125Z,-1.00
2023-04-11T02:11:23.013Z,-1.00
2023-04-11T02:13:52.717Z,-1.00
2023-04-11T02:16:26.099Z,-1.00
2023-04-11T02:18:58.342Z,-1.00
2023-04-11T02:21:26.977Z,-1.00
2023-04-11T02:23:55.140Z,-1.00
2023-04-11T02:26:26.847Z,-1.00
2023-04-11T02:28:56.267Z,-1.00
2023-04-11T02:31:25.559Z,-1.00
2023-04-11T02:33:54.783Z,-1.00
2023-04-11T02:36:23.163Z,-1.00
2023-04-11T02:38:52.056Z,-1.00
2023-04-11T02:41:20.814Z,-1.00
2023-04-11T02:43:52.614Z,-1.00
2023-04-11T02:46:22.759Z,-1.00
2023-04-11T02:48:51.526Z,-1.00
2023-04-11T02:51:21.373Z,-1.00
2023-04-11T02:53:50.823Z,-1.00
2023-04-11T02:56:26.090Z,-1.00
2023-04-11T02:58:57.922Z,-1.00
2023-04-11T03:01:27.212Z,-1.00
2023-04-11T03:04:00.381Z,-1.00
2023-04-11T03:06:37.831Z,-1.00
2023-04-11T03:09:06.177Z,-1.00
2023-04-11T03:11:35.386Z,-1.00
2023-04-11T03:14:04.736Z,-1.00
2023-04-11T03:16:37.213Z,-1.00
2023-04-11T03:19:06.076Z,-1.00
2023-04-11T03:21:34.402Z,-1.00
2023-04-11T03:24:03.723Z,-1.00
2023-04-11T03:26:33.713Z,-1.00
2023-04-11T03:29:05.577Z,-1.00
2023-04-11T03:31:41.182Z,-1.00
2023-04-11T03:34:10.005Z,-1.00
2023-04-11T03:36:41.351Z,-1.00
2023-04-11T03:39:10.058Z,-1.00
2023-04-11T03:41:38.417Z,-1.00
2023-04-11T03:44:11.265Z,-1.00
2023-04-11T03:46:39.721Z,-1.00
2023-04-11T03:49:09.893Z,-1.00
2023-04-11T03:51:38.069Z,-1.00
2023-04-11T03:54:08.185Z,-1.00
2023-04-11T03:56:40.967Z,-1.00
2023-04-11T03:59:19.151Z,-1.00
2023-04-11T04:02:15.680Z,-1.00
2023-04-11T04:04:50.846Z,-1.00
2023-04-11T04:07:27.415Z,-1.00
2023-04-11T04:10:00.807Z,-1.00
2023-04-11T04:12:29.668Z,-1.00
2023-04-11T04:15:25.524Z,-1.00
2023-04-11T04:17:55.517Z,-1.00
2023-04-11T04:20:38.554Z,-1.00
2023-04-11T04:23:07.954Z,-1.00
2023-04-11T04:25:58.234Z,-1.00
2023-04-11T04:28:33.728Z,-1.00
2023-04-11T04:31:05.497Z,-1.00
2023-04-11T04:33:42.879Z,-1.00
2023-04-11T04:36:25.151Z,-1.00
2023-04-11T04:38:54.778Z,-1.00
2023-04-11T04:41:24.397Z,-1.00
2023-04-11T04:43:59.841Z,-1.00
2023-04-11T04:46:37.386Z,-1.00
2023-04-11T04:49:06.992Z,-1.00
2023-04-11T04:51:37.016Z,-1.00
2023-04-11T04:54:08.140Z,-1.00
2023-04-11T04:56:37.298Z,-1.00
2023-04-11T04:59:06.430Z,-1.00
2023-04-11T05:01:40.187Z,-1.00
2023-04-11T05:04:10.537Z,-1.00
2023-04-11T05:06:49.342Z,-1.00
2023-04-11T05:09:18.167Z,-1.00
2023-04-11T05:11:47.978Z,-1.00
2023-04-11T05:14:16.550Z,-1.00
2023-04-11T05:16:45.148Z,-1.00
2023-04-11T05:19:15.151Z,-1.00
2023-04-11T05:21:47.118Z,-1.00
2023-04-11T05:24:15.652Z,-1.00
2023-04-11T05:26:44.294Z,-1.00
2023-04-11T05:29:12.746Z,-1.00
2023-04-11T05:31:42.262Z,-1.00
2023-04-11T05:34:11.142Z,-1.00
2023-04-11T05:36:39.639Z,-1.00
2023-04-11T05:39:09.034Z,-1.00
2023-04-11T05:41:38.540Z,-1.00
2023-04-11T05:44:07.120Z,-1.00
2023-04-11T05:46:38.611Z,-1.00
2023-04-11T05:49:07.918Z,-1.00
2023-04-11T05:51:36.106Z,-1.00
2023-04-11T05:54:04.416Z,-1.00
2023-04-11T05:56:32.696Z,-1.00
2023-04-11T05:59:01.795Z,-1.00
2023-04-11T06:01:30.677Z,-1.00
2023-04-11T06:08:09.009Z,-1.00
2023-04-11T06:10:37.615Z,-1.00
2023-04-11T06:13:07.810Z,-1.00
2023-04-11T06:15:37.375Z,-1.00
2023-04-11T06:18:06.349Z,-1.00
2023-04-11T06:20:36.092Z,-1.00
2023-04-11T06:23:05.833Z,-1.00
2023-04-11T06:25:33.993Z,-1.00
2023-04-11T06:28:02.894Z,-1.00
2023-04-11T06:30:31.619Z,-1.00
2023-04-11T06:32:59.973Z,-1.00
2023-04-11T06:35:28.868Z,-1.00
2023-04-11T06:37:57.215Z,-1.00
2023-04-11T06:40:30.063Z,-1.00
2023-04-11T06:43:01.312Z,-1.00
2023-04-11T06:45:30.966Z,-1.00
2023-04-11T06:48:00.043Z,-1.00
2023-04-11T06:50:29.181Z,-1.00
2023-04-11T06:53:04.046Z,-1.00
2023-04-11T06:55:33.265Z,-1.00
2023-04-11T06:58:02.158Z,-1.00
2023-04-11T07:00:30.797Z,-1.00
2023-04-11T07:03:01.401Z,-1.00
2023-04-11T07:05:29.914Z,-1.00
2023-04-11T07:08:01.093Z,-1.00
2023-04-11T07:10:30.559Z,-1.00
2023-04-11T07:12:59.179Z,-1.00
2023-04-11T07:15:30.399Z,-1.00
2023-04-11T07:18:00.130Z,-1.00
2023-04-11T07:20:28.474Z,-1.00
2023-04-11T07:22:56.814Z,-1.00
2023-04-11T07:25:27.221Z,-1.00
2023-04-11T07:27:57.065Z,-1.00
2023-04-11T07:30:25.434Z,-1.00
2023-04-11T07:33:02.513Z,-1.00
2023-04-11T07:35:31.800Z,-1.00
2023-04-11T07:38:01.380Z,-1.00
2023-04-11T07:40:30.724Z,-1.00
2023-04-11T07:42:59.363Z,-1.00
2023-04-11T07:45:28.220Z,-1.00
2023-04-11T07:47:56.917Z,-1.00
2023-04-11T07:50:25.618Z,-1.00
2023-04-11T07:52:54.115Z,-1.00
2023-04-11T07:55:22.601Z,-1.00
2023-04-11T07:57:51.178Z,-1.00
2023-04-11T08:00:21.691Z,-1.00
2023-04-11T08:02:52.577Z,-1.00
2023-04-11T08:05:21.031Z,-1.00
2023-04-11T08:07:54.400Z,-1.00
2023-04-11T08:10:23.268Z,-1.00
2023-04-11T08:12:51.866Z,-1.00
2023-04-11T08:15:20.264Z,-1.00
2023-04-11T08:17:49.998Z,-1.00
2023-04-11T08:20:19.098Z,-1.00
2023-04-11T08:22:53.117Z,-1.00
2023-04-11T08:25:23.036Z,-1.00
2023-04-11T08:27:52.640Z,-1.00
2023-04-11T08:30:21.356Z,-1.00
2023-04-11T08:32:50.618Z,-1.00
2023-04-11T08:35:20.574Z,-1.00
2023-04-11T08:37:49.759Z,-1.00
2023-04-11T08:40:18.175Z,-1.00
2023-04-11T08:42:47.583Z,-1.00
2023-04-11T08:45:16.241Z,-1.00
2023-04-11T08:47:45.958Z,-1.00
2023-04-11T08:50:14.841Z,-1.00
2023-04-11T08:52:45.170Z,-1.00
2023-04-11T08:55:13.961Z,-1.00
2023-04-11T08:57:43.556Z,-1.00
2023-04-11T09:00:19.310Z,-1.00
2023-04-11T09:02:58.358Z,-1.00
2023-04-11T09:05:38.844Z,-1.00
2023-04-11T09:08:09.774Z,-1.00
2023-04-11T09:10:39.975Z,-1.00
2023-04-11T09:13:18.872Z,-1.00
2023-04-11T09:15:47.242Z,-1.00
2023-04-11T09:18:35.705Z,-1.00
2023-04-11T09:21:10.941Z,-1.00
2023-04-11T09:23:43.774Z,-1.00
2023-04-11T09:26:28.362Z,-1.00
2023-04-11T09:28:57.698Z,-1.00
2023-04-11T09:31:44.019Z,-1.00
2023-04-11T09:34:13.571Z,-1.00
2023-04-11T09:36:45.548Z,-1.00
2023-04-11T09:39:18.223Z,-1.00
2023-04-11T09:41:47.076Z,-1.00
2023-04-11T09:44:18.597Z,-1.00
2023-04-11T09:47:00.987Z,-1.00
2023-04-11T09:49:30.075Z,-1.00
2023-04-11T09:51:58.726Z,-1.00
2023-04-11T09:54:28.403Z,-1.00
2023-04-11T09:56:57.036Z,-1.00
2023-04-11T09:59:26.442Z,-1.00
2023-04-11T10:01:54.828Z,-1.00
2023-04-11T10:04:23.639Z,-1.00
2023-04-11T10:07:13.102Z,-1.00
2023-04-11T10:09:43.097Z,-1.00
2023-04-11T10:12:12.273Z,-1.00
2023-04-11T10:14:42.103Z,-1.00
2023-04-11T10:17:22.760Z,-1.00
2023-04-11T10:19:57.398Z,-1.00
2023-04-11T10:22:41.695Z,-1.00
2023-04-11T10:25:20.730Z,-1.00
2023-04-11T10:28:01.428Z,-1.00
2023-04-11T10:30:40.016Z,-1.00
2023-04-11T10:33:11.887Z,-1.00
2023-04-11T10:36:10.816Z,-1.00
2023-04-11T10:38:49.869Z,-1.00
2023-04-11T10:41:27.433Z,-1.00
2023-04-11T10:44:28.293Z,-1.00
2023-04-11T10:46:59.815Z,-1.00
2023-04-11T10:49:38.720Z,-1.00
2023-04-11T10:52:23.742Z,-1.00
2023-04-11T10:54:52.833Z,-1.00
2023-04-11T10:57:27.395Z,-1.00
2023-04-11T10:59:57.525Z,-1.00
2023-04-11T11:02:37.367Z,-1.00
2023-04-11T11:05:16.782Z,-1.00
2023-04-11T11:07:48.636Z,-1.00
2023-04-11T11:10:17.347Z,-1.00
2023-04-11T11:12:56.381Z,-1.00
2023-04-11T11:15:26.181Z,-1.00
2023-04-11T11:17:55.330Z,-1.00
2023-04-11T11:20:24.219Z,-1.00
2023-04-11T11:23:05.353Z,-1.00
2023-04-11T11:25:34.725Z,-1.00
2023-04-11T11:28:08.131Z,-1.00
2023-04-11T11:30:37.327Z,-1.00
2023-04-11T11:33:18.158Z,-1.00
2023-04-11T11:36:00.614Z,-1.00
2023-04-11T11:38:30.444Z,-1.00
2023-04-11T11:40:59.071Z,-1.00
2023-04-11T11:43:28.210Z,-1.00
2023-04-11T11:46:09.198Z,-1.00
2023-04-11T11:48:37.893Z,-1.00
2023-04-11T11:51:06.311Z,-1.00
2023-04-11T11:53:35.084Z,-1.00
2023-04-11T11:56:23.976Z,-1.00
2023-04-11T12:02:25.783Z,-1.00
2023-04-11T12:04:59.947Z,-1.00
2023-04-11T12:07:37.391Z,-1.00
2023-04-11T12:10:11.962Z,-1.00
2023-04-11T12:12:43.137Z,-1.00
2023-04-11T12:15:12.297Z,-1.00
2023-04-11T12:17:41.157Z,-1.00
2023-04-11T12:20:11.482Z,-1.00
2023-04-11T12:22:41.182Z,-1.00
2023-04-11T12:25:14.647Z,-1.00
2023-04-11T12:27:43.545Z,-1.00
2023-04-11T12:30:15.215Z,-1.00
2023-04-11T12:32:51.287Z,-1.00
2023-04-11T12:35:19.903Z,-1.00
2023-04-11T12:37:48.740Z,-1.00
2023-04-11T12:40:18.061Z,-1.00
2023-04-11T12:42:56.289Z,-1.00
2023-04-11T12:45:26.495Z,-1.00
2023-04-11T12:47:55.437Z,-1.00
2023-04-11T12:50:26.146Z,-1.00
2023-04-11T12:52:56.336Z,-1.00
2023-04-11T12:55:28.880Z,-1.00
2023-04-11T12:57:57.822Z,-1.00
2023-04-11T13:00:27.096Z,-1.00
2023-04-11T13:03:14.069Z,-1.00
2023-04-11T13:05:43.856Z,-1.00
2023-04-11T13:08:12.397Z,-1.00
2023-04-11T13:10:45.218Z,-1.00
2023-04-11T13:13:18.345Z,-1.00
2023-04-11T13:15:47.757Z,-1.00
2023-04-11T13:18:16.419Z,-1.00
2023-04-11T13:20:46.414Z,-1.00
2023-04-11T13:23:17.075Z,-1.00
2023-04-11T13:25:48.788Z,-1.00
2023-04-11T13:28:17.939Z,-1.00
2023-04-11T13:30:47.489Z,-1.00
2023-04-11T13:33:16.499Z,-1.00
2023-04-11T13:35:45.573Z,-1.00
2023-04-11T13:38:17.213Z,-1.00
2023-04-11T13:40:46.035Z,-1.00
2023-04-11T13:43:15.028Z,-1.00
2023-04-11T13:45:43.514Z,-1.00
2023-04-11T13:48:14.920Z,-1.00
2023-04-11T13:50:43.527Z,-1.00
2023-04-11T13:53:12.637Z,-1.00
2023-04-11T13:55:41.729Z,-1.00
2023-04-11T13:58:10.308Z,-1.00
2023-04-11T14:00:39.604Z,-1.00
2023-04-11T14:03:12.502Z,-1.00
2023-04-11T14:05:44.754Z,-1.00
2023-04-11T14:08:13.746Z,-1.00
2023-04-11T14:10:44.342Z,-1.00
2023-04-11T14:13:15.327Z,-1.00
2023-04-11T14:15:47.723Z,-1.00
2023-04-11T14:18:22.859Z,-1.00
2023-04-11T14:20:53.810Z,-1.00
2023-04-11T14:23:23.535Z,-1.00
2023-04-11T14:25:52.905Z,-1.00
2023-04-11T14:28:26.612Z,-1.00
2023-04-11T14:30:59.987Z,-1.00
2023-04-11T14:33:42.296Z,-1.00
2023-04-11T14:36:12.476Z,-1.00
2023-04-11T14:38:42.615Z,-1.00
2023-04-11T14:41:17.025Z,-1.00
2023-04-11T14:43:46.362Z,-1.00
2023-04-11T14:46:15.775Z,-1.00
2023-04-11T14:48:45.113Z,-1.00
2023-04-11T14:51:13.651Z,-1.00
2023-04-11T14:53:43.040Z,-1.00
2023-04-11T14:56:11.582Z,-1.00
2023-04-11T14:58:42.932Z,-1.00
2023-04-11T15:01:13.650Z,-1.00
2023-04-11T15:46:50.088Z,98527.05
2023-04-11T15:49:18.629Z,98530.45
2023-04-11T15:51:47.970Z,98531.88
2023-04-11T15:54:16.607Z,98526.64
2023-04-11T15:56:45.341Z,98526.72
2023-04-11T15:59:15.722Z,98527.35
2023-04-11T16:01:46.462Z,98526.53
2023-04-11T16:04:16.779Z,98523.79
2023-04-11T16:06:45.462Z,98522.80
2023-04-11T16:09:13.833Z,98517.41
2023-04-11T16:11:43.929Z,98510.50
2023-04-11T16:14:12.947Z,98505.63
2023-04-11T16:16:46.799Z,98502.91
2023-04-11T16:19:16.594Z,98501.94
2023-04-11T16:21:45.177Z,98501.30
2023-04-11T16:24:19.259Z,98501.55
2023-04-11T16:26:49.146Z,98503.67
2023-04-11T16:29:17.650Z,98501.80
2023-04-11T16:31:46.998Z,98499.59
2023-04-11T16:34:15.959Z,98499.23
2023-04-11T16:36:44.941Z,98497.46
2023-04-11T16:39:21.032Z,98496.75
2023-04-11T16:41:56.044Z,98501.90
2023-04-11T16:44:24.840Z,98497.91
2023-04-11T16:46:53.521Z,98492.63
2023-04-11T16:49:21.990Z,98488.29
2023-04-11T16:51:50.627Z,98483.58
2023-04-11T16:54:26.838Z,98486.40
2023-04-11T16:56:56.968Z,98489.75
2023-04-11T16:59:25.580Z,98490.10
2023-04-11T17:01:54.234Z,98488.70
2023-04-11T17:04:24.037Z,98489.55
2023-04-11T17:06:52.612Z,98489.36
2023-04-11T17:09:22.407Z,98489.90
2023-04-11T17:11:51.202Z,98489.39
2023-04-11T17:14:19.896Z,98486.09
2023-04-11T17:16:48.311Z,98489.61
2023-04-11T17:19:17.207Z,98489.80
2023-04-11T17:21:46.628Z,98490.19
2023-04-11T17:24:16.058Z,98485.48
2023-04-11T17:26:44.536Z,98488.14
2023-04-11T17:29:14.298Z,98489.89
2023-04-11T17:31:42.827Z,98487.15
2023-04-11T17:34:12.079Z,98490.85
2023-04-11T17:36:43.080Z,98490.03
2023-04-11T17:39:17.659Z,98490.44
2023-04-11T17:41:46.592Z,98491.68
2023-04-11T17:44:15.948Z,98493.63
2023-04-11T17:46:44.501Z,98491.73
2023-04-11T17:49:16.075Z,98489.48
2023-04-11T17:51:56.348Z,98486.88
2023-04-11T17:54:31.922Z,98484.65
2023-04-11T17:57:04.643Z,98485.88
2023-04-11T17:59:41.511Z,98488.69
2023-04-11T18:02:11.240Z,98489.58
2023-04-11T18:04:39.784Z,98489.93
2023-04-11T18:07:08.213Z,98486.49
2023-04-11T18:09:37.991Z,98486.48
2023-04-11T18:12:07.167Z,98486.99
2023-04-11T18:14:43.004Z,98482.11
2023-04-11T18:17:12.172Z,98478.09
2023-04-11T18:19:40.878Z,98478.46
2023-04-11T18:22:11.614Z,98478.13
2023-04-11T18:24:41.833Z,98480.95
2023-04-11T18:27:11.280Z,98478.88
2023-04-11T18:29:40.173Z,98475.59
2023-04-11T18:32:11.112Z,98474.73
2023-04-11T18:34:43.036Z,98477.35
2023-04-11T18:37:11.720Z,98474.20
2023-04-11T18:39:40.724Z,98475.27
2023-04-11T18:42:13.410Z,98470.66
2023-04-11T18:44:43.506Z,98468.36
2023-04-11T18:47:17.335Z,98466.11
2023-04-11T18:49:47.256Z,98467.51
2023-04-11T18:52:16.083Z,98462.45
2023-04-11T18:54:49.680Z,98459.69
2023-04-11T18:57:18.718Z,98455.85
2023-04-11T18:59:49.549Z,98452.19
2023-04-11T19:02:19.397Z,98448.86
2023-04-11T19:04:48.447Z,98446.94
2023-04-11T19:07:17.218Z,98441.04
2023-04-11T19:09:47.246Z,98436.86
2023-04-11T19:12:17.161Z,98434.07
2023-04-11T19:14:45.737Z,98432.33
2023-04-11T19:17:16.666Z,98429.04
2023-04-11T19:19:45.563Z,98426.92
2023-04-11T19:22:14.550Z,98424.84
2023-04-11T19:24:44.219Z,98425.90
2023-04-11T19:27:14.053Z,98423.48
2023-04-11T19:29:42.924Z,98421.19
2023-04-11T19:32:12.728Z,98422.24
2023-04-11T19:34:41.766Z,98418.77
2023-04-11T19:37:10.546Z,98417.23
2023-04-11T19:39:39.398Z,98413.91
2023-04-11T19:42:10.263Z,98412.70
2023-04-11T19:44:38.557Z,98411.50
2023-04-11T19:47:06.926Z,98410.96
2023-04-11T19:49:35.922Z,98408.35
2023-04-11T19:52:04.704Z,98404.35
2023-04-11T19:54:33.697Z,98402.61
2023-04-11T19:57:02.382Z,98398.98
2023-04-11T19:59:31.277Z,98392.71
2023-04-11T20:02:01.907Z,98391.67
2023-04-11T20:04:32.298Z,98391.84
2023-04-11T20:07:03.414Z,98390.33
2023-04-11T20:09:41.784Z,98383.77
2023-04-11T20:12:12.100Z,98383.07
2023-04-11T20:14:40.580Z,98378.54
2023-04-11T20:17:12.790Z,98376.80
2023-04-11T20:19:43.647Z,98376.98
2023-04-11T20:22:13.601Z,98374.58
2023-04-11T20:24:42.897Z,98372.51
2023-04-11T20:27:11.238Z,98367.80
2023-04-11T20:29:47.534Z,98370.95
2023-04-11T20:32:16.532Z,98367.67
2023-04-11T20:34:45.004Z,98360.89
2023-04-11T20:37:16.906Z,98360.21
2023-04-11T20:39:46.398Z,98358.50
2023-04-11T20:42:20.591Z,98357.15
2023-04-11T20:44:49.684Z,98354.21
2023-04-11T20:47:18.194Z,98353.90
2023-04-11T20:49:49.809Z,98351.47
2023-04-11T20:52:18.436Z,98348.21
2023-04-11T20:54:48.302Z,98347.54
2023-04-11T20:57:16.949Z,98343.55
2023-04-11T20:59:51.713Z,98341.14
2023-04-11T21:02:21.012Z,98342.35
2023-04-11T21:04:51.900Z,98341.85
2023-04-11T21:07:24.536Z,98341.67
2023-04-11T21:09:52.806Z,98338.91
2023-04-11T21:12:21.689Z,98335.26
2023-04-11T21:14:59.489Z,98334.16
2023-04-11T21:17:27.891Z,98332.75
2023-04-11T21:19:56.548Z,98331.23
2023-04-11T21:22:35.223Z,98323.76
2023-04-11T21:25:04.263Z,98325.50
2023-04-11T21:27:32.640Z,98319.75
2023-04-11T21:30:01.121Z,98318.71
2023-04-11T21:32:42.139Z,98318.18
2023-04-11T21:35:11.422Z,98316.27
2023-04-11T21:37:39.881Z,98316.78
2023-04-11T21:40:14.198Z,98315.58
2023-04-11T21:42:42.845Z,98311.37
2023-04-11T21:45:11.251Z,98308.05
2023-04-11T21:47:40.467Z,98305.79
2023-04-11T21:50:09.786Z,98302.63
2023-04-11T21:52:38.336Z,98298.26
2023-04-11T21:55:09.006Z,98294.48
2023-04-11T21:57:37.545Z,98294.08
2023-04-11T22:00:08.543Z,98291.29
2023-04-11T22:02:43.385Z,98288.88
2023-04-11T22:05:12.856Z,98290.45
2023-04-11T22:07:48.685Z,98287.65
2023-04-11T22:10:22.636Z,98284.70
2023-04-11T22:12:54.797Z,98281.60
2023-04-11T22:15:24.582Z,98278.31
2023-04-11T22:17:54.562Z,98275.90
2023-04-11T22:20:23.375Z,98275.39
2023-04-11T22:22:53.064Z,98272.29
2023-04-11T22:25:22.667Z,98265.20
2023-04-11T22:27:55.013Z,98265.20
2023-04-11T22:30:24.694Z,98260.70
2023-04-11T22:33:04.362Z,98253.92
2023-04-11T22:35:33.035Z,98254.63
2023-04-11T22:38:01.778Z,98252.05
2023-04-11T22:40:30.342Z,98245.97
2023-04-11T22:42:59.430Z,98244.93
2023-04-11T22:45:28.301Z,98242.48
2023-04-11T22:48:00.156Z,98242.85
2023-04-11T22:50:28.993Z,98245.80
2023-04-11T22:53:01.993Z,98243.71
2023-04-11T22:55:36.574Z,98238.15
2023-04-11T22:58:04.949Z,98234.67
2023-04-11T23:00:38.390Z,98232.23
2023-04-11T23:03:07.555Z,98235.20
2023-04-11T23:05:41.250Z,98232.79
2023-04-11T23:08:11.159Z,98229.85
2023-04-11T23:10:39.637Z,98224.80
2023-04-11T23:13:14.365Z,98221.88
2023-04-11T23:15:43.011Z,98220.65
2023-04-11T23:18:11.528Z,98217.86
2023-04-11T23:20:42.560Z,98213.16
2023-04-11T23:23:11.728Z,98210.20
2023-04-11T23:25:43.143Z,98207.58
2023-04-11T23:28:12.911Z,98206.35
2023-04-11T23:30:41.829Z,98208.80
2023-04-11T23:33:10.382Z,98209.48
2023-04-11T23:35:42.877Z,98206.35
2023-04-11T23:38:11.147Z,98203.03
2023-04-11T23:40:41.605Z,98201.13
2023-04-11T23:43:12.733Z,98195.38
2023-04-11T23:45:41.386Z,98195.36
2023-04-11T23:48:11.193Z,98198.30
2023-04-11T23:50:40.083Z,98198.49
2023-04-11T23:53:08.481Z,98196.38
2023-04-11T23:55:37.010Z,98191.19
2023-04-11T23:58:05.988Z,98188.73
